createdAt,value
2023-02-14T00:01:21.890Z,6.20
2023-02-14T00:04:10.663Z,6.50
2023-02-14T00:07:01.205Z,6.57
2023-02-14T00:09:50.711Z,6.17
2023-02-14T00:12:39.714Z,6.20
2023-02-14T00:15:27.957Z,6.50
2023-02-14T00:18:18.427Z,6.30
2023-02-14T00:21:08.166Z,7.27
2023-02-14T00:23:58.544Z,6.87
2023-02-14T00:26:47.271Z,6.40
2023-02-14T00:29:36.322Z,6.87
2023-02-14T00:32:25.288Z,7.13
2023-02-14T00:35:15.485Z,7.00
2023-02-14T00:38:04.282Z,6.67
2023-02-14T00:40:54.565Z,6.57
2023-02-14T00:43:43.305Z,6.33
2023-02-14T00:46:32.384Z,6.77
2023-02-14T00:49:21.390Z,7.10
2023-02-14T00:52:10.255Z,7.07
2023-02-14T00:54:59.400Z,6.67
2023-02-14T00:57:49.556Z,6.73
2023-02-14T01:00:38.516Z,6.60
2023-02-14T01:03:27.943Z,6.70
2023-02-14T01:06:17.029Z,6.83
2023-02-14T01:09:06.524Z,6.80
2023-02-14T01:11:55.553Z,7.07
2023-02-14T01:14:45.648Z,7.13
2023-02-14T01:17:34.434Z,7.43
2023-02-14T01:20:23.261Z,7.40
2023-02-14T01:23:12.381Z,7.33
2023-02-14T01:26:05.049Z,7.30
2023-02-14T01:28:54.232Z,8.17
2023-02-14T01:31:45.195Z,7.73
2023-02-14T01:34:34.643Z,8.17
2023-02-14T01:37:23.326Z,7.60
2023-02-14T01:40:15.419Z,7.70
2023-02-14T01:43:05.220Z,7.83
2023-02-14T01:45:54.060Z,8.30
2023-02-14T01:48:44.493Z,8.07
2023-02-14T01:51:35.940Z,8.97
2023-02-14T01:54:27.136Z,8.90
2023-02-14T01:57:20.454Z,8.30
2023-02-14T02:00:28.719Z,9.00
2023-02-14T02:03:18.923Z,9.03
2023-02-14T02:06:14.733Z,8.63
2023-02-14T02:09:10.751Z,8.27
2023-02-14T02:11:59.776Z,9.57
2023-02-14T02:14:49.863Z,9.57
2023-02-14T02:17:46.768Z,9.50
2023-02-14T02:21:01.840Z,8.97
2023-02-14T02:24:20.617Z,9.57
2023-02-14T02:27:33.306Z,9.03
2023-02-14T02:30:41.101Z,9.23
2023-02-14T02:34:08.660Z,9.63
2023-02-14T02:37:31.067Z,9.43
2023-02-14T02:40:37.138Z,10.27
2023-02-14T02:43:40.339Z,9.73
2023-02-14T02:46:49.143Z,9.63
2023-02-14T02:50:02.830Z,10.40
2023-02-14T02:53:04.067Z,9.93
2023-02-14T02:56:16.628Z,10.40
2023-02-14T02:59:18.297Z,9.70
2023-02-14T03:02:16.113Z,9.70
2023-02-14T03:05:07.185Z,9.47
2023-02-14T03:07:57.612Z,10.00
2023-02-14T03:10:46.835Z,9.60
2023-02-14T03:13:54.584Z,9.97
2023-02-14T03:16:55.696Z,9.40
2023-02-14T03:20:11.251Z,8.83
2023-02-14T03:23:10.038Z,10.00
2023-02-14T03:26:07.541Z,9.27
2023-02-14T03:29:02.906Z,9.83
2023-02-14T03:31:58.904Z,10.17
2023-02-14T03:34:54.805Z,9.07
2023-02-14T03:37:50.190Z,9.00
2023-02-14T03:40:44.126Z,9.70
2023-02-14T03:43:40.407Z,9.87
2023-02-14T03:46:32.771Z,9.37
2023-02-14T03:49:28.175Z,9.77
2023-02-14T03:52:18.534Z,9.60
2023-02-14T03:55:09.686Z,9.80
2023-02-14T03:58:07.543Z,10.33
2023-02-14T04:01:02.772Z,9.93
2023-02-14T04:03:53.922Z,10.60
2023-02-14T04:06:42.922Z,10.00
2023-02-14T04:09:32.004Z,9.37
2023-02-14T04:12:35.801Z,9.77
2023-02-14T04:15:28.150Z,9.53
2023-02-14T04:18:34.489Z,10.17
2023-02-14T04:21:23.400Z,9.80
2023-02-14T04:24:12.583Z,10.17
2023-02-14T04:27:21.186Z,9.50
2023-02-14T04:30:12.657Z,10.27
2023-02-14T04:33:02.952Z,10.40
2023-02-14T04:35:51.820Z,10.47
2023-02-14T04:38:40.599Z,10.10
2023-02-14T04:41:29.325Z,9.90
2023-02-14T04:44:18.195Z,10.53
2023-02-14T04:47:07.980Z,10.07
2023-02-14T04:49:58.290Z,11.23
2023-02-14T04:52:47.150Z,10.17
2023-02-14T04:55:35.858Z,10.53
2023-02-14T04:58:24.581Z,10.77
2023-02-14T05:01:13.775Z,10.13
2023-02-14T05:04:02.690Z,9.97
2023-02-14T05:06:52.712Z,10.50
2023-02-14T05:09:41.408Z,10.77
2023-02-14T05:12:30.065Z,10.27
2023-02-14T05:15:18.924Z,10.83
2023-02-14T05:18:07.998Z,11.13
2023-02-14T05:20:57.343Z,10.40
2023-02-14T05:23:48.017Z,10.63
2023-02-14T05:26:37.201Z,11.00
2023-02-14T05:29:26.456Z,11.20
2023-02-14T05:32:15.509Z,11.10
2023-02-14T05:35:04.347Z,10.83
2023-02-14T05:37:53.071Z,11.47
2023-02-14T05:40:47.980Z,11.30
2023-02-14T05:43:36.683Z,13.03
2023-02-14T05:46:25.358Z,10.73
2023-02-14T05:49:14.534Z,10.60
2023-02-14T05:52:03.498Z,10.80
2023-02-14T05:54:53.880Z,10.53
2023-02-14T05:57:44.488Z,11.57
2023-02-14T06:00:33.419Z,11.93
2023-02-14T06:03:22.059Z,11.20
2023-02-14T06:06:10.900Z,10.93
2023-02-14T06:08:59.615Z,11.10
2023-02-14T06:11:48.675Z,12.17
2023-02-14T06:14:39.292Z,10.80
2023-02-14T06:17:28.031Z,11.03
2023-02-14T06:20:16.893Z,11.03
2023-02-14T06:23:05.804Z,67.63
2023-02-14T06:25:54.491Z,41.57
2023-02-14T06:28:43.740Z,12.07
2023-02-14T06:31:34.397Z,11.53
2023-02-14T06:34:23.094Z,11.97
2023-02-14T06:37:12.590Z,11.47
2023-02-14T06:40:01.921Z,11.47
2023-02-14T06:42:50.791Z,11.50
2023-02-14T06:45:43.936Z,10.87
2023-02-14T06:48:34.283Z,11.50
2023-02-14T06:51:23.248Z,10.63
2023-02-14T06:54:12.269Z,10.63
2023-02-14T06:57:01.364Z,11.33
2023-02-14T06:59:50.123Z,12.13
2023-02-14T07:02:39.192Z,11.83
2023-02-14T07:05:29.848Z,11.60
2023-02-14T07:08:18.612Z,11.87
2023-02-14T07:11:07.613Z,11.17
2023-02-14T07:13:56.650Z,12.33
2023-02-14T07:16:45.388Z,11.67
2023-02-14T07:19:34.289Z,11.97
2023-02-14T07:22:24.906Z,12.07
2023-02-14T07:25:14.019Z,12.93
2023-02-14T07:28:03.734Z,12.57
2023-02-14T07:30:52.647Z,12.50
2023-02-14T07:33:41.394Z,12.30
2023-02-14T07:36:30.189Z,12.67
2023-02-14T07:39:20.417Z,12.33
2023-02-14T07:42:09.225Z,12.37
2023-02-14T07:44:57.897Z,13.17
2023-02-14T07:47:46.571Z,13.30
2023-02-14T07:50:35.375Z,13.07
2023-02-14T07:53:24.746Z,13.00
2023-02-14T07:56:15.165Z,12.60
2023-02-14T07:59:04.343Z,13.20
2023-02-14T08:01:53.511Z,12.43
2023-02-14T08:04:42.297Z,13.07
2023-02-14T08:07:31.447Z,12.83
2023-02-14T08:10:20.432Z,12.67
2023-02-14T08:13:10.696Z,13.30
2023-02-14T08:16:09.735Z,12.00
2023-02-14T08:18:58.902Z,15.40
2023-02-14T08:21:47.789Z,14.00
2023-02-14T08:24:36.836Z,12.53
2023-02-14T08:27:25.577Z,11.53
2023-02-14T08:30:17.140Z,12.23
2023-02-14T08:33:09.655Z,11.93
2023-02-14T08:35:58.499Z,12.87
2023-02-14T08:38:48.664Z,12.17
2023-02-14T08:41:37.600Z,12.30
2023-02-14T08:44:27.041Z,12.10
2023-02-14T08:47:17.420Z,13.13
2023-02-14T08:50:08.265Z,12.53
2023-02-14T08:52:57.301Z,12.73
2023-02-14T08:55:46.371Z,12.93
2023-02-14T08:58:36.338Z,12.80
2023-02-14T09:01:25.181Z,13.07
2023-02-14T09:04:15.747Z,12.43
2023-02-14T09:07:06.412Z,45.97
2023-02-14T09:09:55.226Z,33.73
2023-02-14T09:12:44.118Z,12.83
2023-02-14T09:15:33.831Z,12.60
2023-02-14T09:18:22.557Z,12.17
2023-02-14T09:21:15.115Z,12.67
2023-02-14T09:24:04.481Z,12.17
2023-02-14T09:26:53.388Z,12.50
2023-02-14T09:29:42.508Z,11.70
2023-02-14T09:32:31.637Z,12.80
2023-02-14T09:35:20.625Z,12.50
2023-02-14T09:38:22.954Z,12.97
2023-02-14T09:41:39.976Z,12.33
2023-02-14T09:44:34.872Z,12.77
2023-02-14T09:47:34.424Z,13.57
2023-02-14T09:50:30.678Z,13.03
2023-02-14T09:53:27.999Z,12.97
2023-02-14T09:56:22.624Z,13.37
2023-02-14T09:59:20.817Z,14.33
2023-02-14T10:02:28.522Z,13.37
2023-02-14T10:05:22.161Z,13.90
2023-02-14T10:08:28.646Z,13.23
2023-02-14T10:11:21.571Z,13.17
2023-02-14T10:14:14.997Z,13.20
2023-02-14T10:17:10.976Z,14.63
2023-02-14T10:20:03.621Z,12.10
2023-02-14T10:23:01.211Z,12.47
2023-02-14T10:25:58.958Z,12.83
2023-02-14T10:28:49.402Z,12.47
2023-02-14T10:31:45.592Z,13.70
2023-02-14T10:34:40.357Z,13.50
2023-02-14T10:37:43.150Z,13.20
2023-02-14T10:41:03.329Z,13.03
2023-02-14T10:44:02.398Z,12.40
2023-02-14T10:46:56.655Z,13.23
2023-02-14T10:49:51.167Z,12.70
2023-02-14T10:52:44.232Z,13.17
2023-02-14T10:55:44.675Z,13.57
2023-02-14T10:58:38.123Z,12.10
2023-02-14T11:01:27.240Z,12.80
2023-02-14T11:04:18.070Z,12.80
2023-02-14T11:07:14.246Z,12.87
2023-02-14T11:10:03.635Z,13.17
2023-02-14T11:12:52.660Z,13.23
2023-02-14T11:15:51.024Z,12.57
2023-02-14T11:18:41.129Z,12.60
2023-02-14T11:21:39.374Z,20.73
2023-02-14T11:24:31.917Z,12.70
2023-02-14T11:27:21.323Z,11.50
2023-02-14T11:30:19.911Z,12.53
2023-02-14T11:33:14.059Z,12.23
2023-02-14T11:36:05.300Z,13.83
2023-02-14T11:39:07.680Z,12.07
2023-02-14T11:41:58.391Z,13.10
2023-02-14T11:44:58.762Z,12.30
2023-02-14T11:47:47.521Z,12.70
2023-02-14T11:50:39.957Z,12.30
2023-02-14T11:53:31.380Z,12.90
2023-02-14T11:56:22.294Z,11.80
2023-02-14T11:59:14.210Z,11.67
2023-02-14T12:02:12.481Z,11.87
2023-02-14T12:05:05.154Z,12.03
2023-02-14T12:07:56.847Z,11.63
2023-02-14T12:10:45.588Z,11.57
2023-02-14T12:13:35.070Z,12.00
2023-02-14T12:16:28.366Z,12.57
2023-02-14T12:19:21.843Z,12.47
2023-02-14T12:22:14.387Z,11.90
2023-02-14T12:25:15.489Z,13.27
2023-02-14T12:28:11.719Z,12.13
2023-02-14T12:31:01.025Z,12.30
2023-02-14T12:33:50.681Z,12.07
2023-02-14T12:36:54.059Z,11.30
2023-02-14T12:39:58.038Z,13.43
2023-02-14T12:43:02.766Z,12.50
2023-02-14T12:46:12.826Z,12.27
2023-02-14T12:49:31.162Z,12.50
2023-02-14T12:52:42.393Z,12.98
2023-02-14T12:55:58.912Z,11.77
2023-02-14T12:59:01.765Z,12.17
2023-02-14T13:02:31.390Z,12.95
2023-02-14T13:05:27.391Z,12.67
2023-02-14T13:08:31.061Z,13.03
2023-02-14T13:11:30.248Z,12.00
2023-02-14T13:14:40.520Z,12.32
2023-02-14T13:17:38.144Z,11.93
2023-02-14T13:20:42.208Z,12.48
2023-02-14T13:23:36.401Z,12.47
2023-02-14T13:26:31.376Z,13.05
2023-02-14T13:29:25.315Z,12.68
2023-02-14T13:32:17.769Z,12.90
2023-02-14T13:35:07.886Z,13.77
2023-02-14T13:37:59.211Z,12.80
2023-02-14T13:40:49.140Z,12.88
2023-02-14T13:43:56.546Z,12.80
2023-02-14T13:46:53.727Z,12.60
2023-02-14T13:49:49.688Z,13.13
2023-02-14T13:52:47.127Z,13.60
2023-02-14T13:55:37.547Z,13.13
2023-02-14T13:58:27.411Z,13.43
2023-02-14T14:01:32.668Z,14.23
2023-02-14T14:04:39.700Z,12.97
2023-02-14T14:07:31.088Z,13.23
2023-02-14T14:10:44.908Z,13.50
2023-02-14T14:13:55.855Z,12.70
2023-02-14T14:16:59.076Z,13.00
2023-02-14T14:19:50.460Z,13.27
2023-02-14T14:22:48.102Z,12.80
2023-02-14T14:25:39.496Z,13.40
2023-02-14T14:28:32.575Z,12.53
2023-02-14T14:31:22.286Z,13.70
2023-02-14T14:34:19.264Z,14.30
2023-02-14T14:37:34.426Z,14.73
2023-02-14T14:40:28.811Z,16.00
2023-02-14T14:43:22.673Z,13.57
2023-02-14T14:46:14.412Z,13.93
2023-02-14T14:49:05.905Z,13.13
2023-02-14T14:51:55.880Z,14.37
2023-02-14T14:54:46.295Z,14.48
2023-02-14T14:57:37.449Z,16.00
2023-02-14T15:00:29.405Z,16.07
2023-02-14T15:03:26.115Z,17.43
2023-02-14T15:06:21.733Z,17.13
2023-02-14T15:09:16.056Z,18.42
2023-02-14T15:12:24.607Z,17.37
2023-02-14T15:15:16.905Z,17.93
2023-02-14T15:18:08.059Z,18.53
2023-02-14T15:20:57.095Z,19.50
2023-02-14T15:23:47.094Z,24.77
2023-02-14T15:26:37.396Z,22.40
2023-02-14T15:29:33.646Z,19.13
2023-02-14T15:32:22.822Z,18.30
2023-02-14T15:35:14.890Z,18.80
2023-02-14T15:38:07.405Z,19.10
2023-02-14T15:40:56.772Z,19.33
2023-02-14T15:43:51.987Z,19.57
2023-02-14T15:46:43.942Z,19.20
2023-02-14T15:49:36.824Z,19.20
2023-02-14T15:52:25.809Z,20.03
2023-02-14T15:55:19.812Z,19.48
2023-02-14T15:58:16.033Z,19.37
2023-02-14T16:01:05.312Z,19.53
2023-02-14T16:03:58.797Z,19.73
2023-02-14T16:06:50.255Z,19.53
2023-02-14T16:09:38.975Z,21.03
2023-02-14T16:12:38.247Z,20.67
2023-02-14T16:15:28.514Z,20.57
2023-02-14T16:18:35.374Z,20.37
2023-02-14T16:21:28.155Z,22.07
2023-02-14T16:24:17.432Z,23.40
2023-02-14T16:27:08.999Z,20.57
2023-02-14T16:29:59.100Z,21.57
2023-02-14T16:32:53.811Z,20.57
2023-02-14T16:35:46.629Z,20.47
2023-02-14T16:38:43.149Z,20.87
2023-02-14T16:41:33.769Z,20.27
2023-02-14T16:44:22.762Z,21.93
2023-02-14T16:47:13.485Z,21.23
2023-02-14T16:50:02.549Z,21.10
2023-02-14T16:52:56.009Z,20.50
2023-02-14T16:55:46.221Z,21.50
2023-02-14T16:58:37.670Z,21.03
2023-02-14T17:01:27.199Z,21.83
2023-02-14T17:04:16.239Z,22.00
2023-02-14T17:07:06.089Z,21.87
2023-02-14T17:09:59.073Z,21.60
2023-02-14T17:12:50.355Z,22.67
2023-02-14T17:15:40.691Z,23.70
2023-02-14T17:18:32.390Z,23.90
2023-02-14T17:21:23.494Z,23.57
2023-02-14T17:24:12.301Z,23.43
2023-02-14T17:27:01.213Z,26.20
2023-02-14T17:29:52.099Z,26.93
2023-02-14T17:32:40.964Z,24.10
2023-02-14T17:35:30.153Z,25.27
2023-02-14T17:38:20.319Z,24.57
2023-02-14T17:41:13.720Z,24.07
2023-02-14T17:44:02.523Z,23.50
2023-02-14T17:46:54.912Z,23.27
2023-02-14T17:49:43.927Z,24.60
2023-02-14T17:52:33.361Z,24.73
2023-02-14T17:55:22.542Z,24.30
2023-02-14T17:58:11.315Z,25.07
2023-02-14T18:01:04.584Z,24.70
2023-02-14T18:03:58.262Z,25.03
2023-02-14T18:06:47.986Z,25.13
2023-02-14T18:09:37.567Z,25.63
2023-02-14T18:12:26.521Z,25.83
2023-02-14T18:15:15.324Z,26.87
2023-02-14T18:18:04.500Z,26.13
2023-02-14T18:20:57.036Z,26.80
2023-02-14T18:23:45.707Z,27.27
2023-02-14T18:26:36.686Z,27.33
2023-02-14T18:29:25.456Z,27.20
2023-02-14T18:32:14.337Z,26.77
2023-02-14T18:35:03.992Z,25.60
2023-02-14T18:37:54.119Z,27.70
2023-02-14T18:40:43.462Z,27.13
2023-02-14T18:43:32.571Z,25.67
2023-02-14T18:46:23.269Z,26.50
2023-02-14T18:49:13.456Z,25.67
2023-02-14T18:52:04.976Z,25.93
2023-02-14T18:54:59.517Z,25.87
2023-02-14T18:57:48.634Z,26.03
2023-02-14T19:00:37.645Z,25.60
2023-02-14T19:03:26.803Z,25.57
2023-02-14T19:06:15.745Z,25.20
2023-02-14T19:09:08.412Z,25.03
2023-02-14T19:12:00.393Z,24.93
2023-02-14T19:14:49.798Z,27.57
2023-02-14T19:17:42.508Z,28.00
2023-02-14T19:20:31.269Z,25.77
2023-02-14T19:23:21.933Z,24.83
2023-02-14T19:26:12.345Z,25.73
2023-02-14T19:29:07.946Z,26.53
2023-02-14T19:31:57.018Z,25.87
2023-02-14T19:34:46.190Z,25.43
2023-02-14T19:37:36.156Z,26.73
2023-02-14T19:40:25.157Z,26.70
2023-02-14T19:43:14.031Z,26.07
2023-02-14T19:46:06.170Z,25.27
2023-02-14T19:48:56.377Z,25.00
2023-02-14T19:51:46.315Z,25.90
2023-02-14T19:54:40.755Z,25.93
2023-02-14T19:57:29.639Z,27.60
2023-02-14T20:00:21.332Z,27.07
2023-02-14T20:03:11.881Z,25.93
2023-02-14T20:06:01.063Z,26.83
2023-02-14T20:08:50.418Z,25.27
2023-02-14T20:11:44.072Z,25.83
2023-02-14T20:14:49.879Z,26.37
2023-02-14T20:17:40.727Z,25.23
2023-02-14T20:20:52.227Z,26.17
2023-02-14T20:23:41.052Z,26.13
2023-02-14T20:26:31.058Z,27.70
2023-02-14T20:29:20.821Z,26.17
2023-02-14T20:32:10.032Z,26.60
2023-02-14T20:34:58.955Z,25.40
2023-02-14T20:37:49.177Z,26.43
2023-02-14T20:40:40.301Z,26.90
2023-02-14T20:43:29.667Z,24.07
2023-02-14T20:46:18.535Z,25.53
2023-02-14T20:49:07.506Z,24.47
2023-02-14T20:51:59.666Z,26.13
2023-02-14T20:54:49.972Z,27.10
2023-02-14T20:57:38.886Z,26.00
2023-02-14T21:00:28.600Z,27.13
2023-02-14T21:03:17.582Z,30.50
2023-02-14T21:06:08.832Z,27.93
2023-02-14T21:08:58.028Z,28.23
2023-02-14T21:11:48.688Z,27.47
2023-02-14T21:14:37.791Z,29.23
2023-02-14T21:17:27.218Z,28.67
2023-02-14T21:20:19.168Z,30.83
2023-02-14T21:23:08.803Z,30.67
2023-02-14T21:25:58.182Z,31.27
2023-02-14T21:28:49.154Z,32.60
2023-02-14T21:31:41.707Z,32.37
2023-02-14T21:34:30.921Z,31.47
2023-02-14T21:37:22.602Z,31.50
2023-02-14T21:40:12.026Z,32.97
2023-02-14T21:43:00.991Z,33.00
2023-02-14T21:45:58.066Z,32.37
2023-02-14T21:49:04.899Z,31.63
2023-02-14T21:51:54.396Z,32.90
2023-02-14T21:54:43.590Z,32.03
2023-02-14T21:57:33.495Z,32.13
2023-02-14T22:00:23.509Z,33.33
2023-02-14T22:03:13.556Z,31.83
2023-02-14T22:06:03.586Z,32.60
2023-02-14T22:08:55.124Z,33.27
2023-02-14T22:11:44.061Z,32.27
2023-02-14T22:14:32.715Z,33.60
2023-02-14T22:17:24.868Z,33.40
2023-02-14T22:20:16.145Z,33.47
2023-02-14T22:23:04.926Z,34.27
2023-02-14T22:25:53.679Z,33.40
2023-02-14T22:28:44.326Z,32.57
2023-02-14T22:31:36.281Z,32.10
2023-02-14T22:34:25.174Z,33.13
2023-02-14T22:37:15.690Z,33.17
2023-02-14T22:40:04.625Z,32.10
2023-02-14T22:42:53.370Z,32.57
2023-02-14T22:45:42.304Z,33.63
2023-02-14T22:48:32.225Z,32.57
2023-02-14T22:51:24.035Z,34.13
2023-02-14T22:54:15.966Z,33.77
2023-02-14T22:57:08.138Z,32.10
2023-02-14T22:59:57.570Z,33.23
2023-02-14T23:02:46.484Z,32.33
2023-02-14T23:05:38.190Z,32.50
2023-02-14T23:08:27.225Z,32.63
2023-02-14T23:11:20.291Z,33.60
2023-02-14T23:14:26.863Z,32.53
2023-02-14T23:17:34.735Z,32.50
2023-02-14T23:20:41.239Z,33.67
2023-02-14T23:23:32.621Z,32.80
2023-02-14T23:26:23.613Z,33.47
2023-02-14T23:29:12.480Z,34.13
2023-02-14T23:32:01.456Z,32.70
2023-02-14T23:34:50.356Z,32.07
2023-02-14T23:37:39.622Z,31.47
2023-02-14T23:40:28.474Z,32.20
2023-02-14T23:43:18.941Z,31.27
2023-02-14T23:46:07.868Z,32.17
2023-02-14T23:48:57.244Z,32.53
2023-02-14T23:51:47.104Z,31.23
2023-02-14T23:54:36.699Z,31.80
2023-02-14T23:57:25.475Z,31.07
